Time;durP1;ratioP1;P1;durP2;ratioP2;P2;SDS_P1;SDS_P2;PMS_P1;PMS_P2;Temp;Humidity;BMP_temperature;BMP_pressure;BME280_temperature;BME280_humidity;BME280_pressure;Samples;Min_cycle;Max_cycle;Signal;HPM_P1;HPM_P2
2021/12/06 00:00:59;;;;;;;50.88;18.17;;;;;;;;;;5040302;28;20074;-75
2021/12/06 00:03:29;;;;;;;41.58;15.50;;;;;;;;;;5038989;28;20114;-76
2021/12/06 00:05:55;;;;;;;42.55;17.17;;;;;;;;;;5040249;28;20078;-75
2021/12/06 00:08:21;;;;;;;40.50;15.60;;;;;;;;;;5022318;28;20049;-74
2021/12/06 00:10:50;;;;;;;42.05;14.13;;;;;;;;;;5038199;28;20036;-75
2021/12/06 00:13:20;;;;;;;49.25;16.45;;;;;;;;;;5021148;28;20482;-75
2021/12/06 00:15:48;;;;;;;51.40;18.83;;;;;;;;;;5021704;28;20041;-76
2021/12/06 00:18:14;;;;;;;47.47;17.23;;;;;;;;;;5023227;28;20413;-75
2021/12/06 00:20:40;;;;;;;48.10;15.95;;;;;;;;;;5021530;28;20072;-76
2021/12/06 00:23:06;;;;;;;50.03;18.55;;;;;;;;;;5038236;28;20447;-76
2021/12/06 00:25:32;;;;;;;57.95;19.58;;;;;;;;;;5023296;28;20053;-75
2021/12/06 00:27:58;;;;;;;40.95;15.30;;;;;;;;;;5037961;28;20091;-75
2021/12/06 00:30:24;;;;;;;54.72;18.70;;;;;;;;;;5038338;28;20480;-75
2021/12/06 00:32:50;;;;;;;61.47;20.77;;;;;;;;;;5023118;28;20502;-75
2021/12/06 00:35:21;;;;;;;62.53;21.13;;;;;;;;;;5016395;28;20048;-76
2021/12/06 00:38:00;;;;;;;72.83;22.63;;;;;;;;;;5018031;28;20061;-75
2021/12/06 00:40:35;;;;;;;70.28;21.90;;;;;;;;;;5034705;28;20099;-75
2021/12/06 00:43:01;;;;;;;54.28;18.08;;;;;;;;;;5034475;28;20034;-76
2021/12/06 00:45:27;;;;;;;57.97;19.20;;;;;;;;;;5034384;28;20128;-75
2021/12/06 00:47:53;;;;;;;55.78;18.20;;;;;;;;;;5036517;28;20091;-75
2021/12/06 00:50:21;;;;;;;42.53;16.25;;;;;;;;;;5033905;28;20431;-76
2021/12/06 00:52:47;;;;;;;37.13;15.25;;;;;;;;;;5034350;28;20094;-75
2021/12/06 00:55:13;;;;;;;45.00;15.63;;;;;;;;;;5019311;28;20033;-75
2021/12/06 00:57:40;;;;;;;50.15;17.08;;;;;;;;;;5037539;28;20041;-76
2021/12/06 01:00:09;;;;;;;58.17;17.48;;;;;;;;;;5038177;28;20507;-75
2021/12/06 01:02:35;;;;;;;59.25;18.73;;;;;;;;;;5022968;28;20033;-76
2021/12/06 01:05:01;;;;;;;45.50;15.07;;;;;;;;;;5037957;28;20041;-76
2021/12/06 01:07:26;;;;;;;45.38;16.95;;;;;;;;;;5038109;28;20350;-75
2021/12/06 01:09:52;;;;;;;48.97;16.98;;;;;;;;;;5022820;28;20051;-75
2021/12/06 01:12:18;;;;;;;42.30;15.70;;;;;;;;;;5021884;28;20087;-75
2021/12/06 01:14:45;;;;;;;48.83;17.27;;;;;;;;;;5041223;28;20037;-75
2021/12/06 01:17:11;;;;;;;47.33;16.63;;;;;;;;;;5026244;28;20505;-75
2021/12/06 01:19:37;;;;;;;52.00;17.77;;;;;;;;;;5024162;28;20068;-75
2021/12/06 01:25:20;;;;;;;54.28;19.40;;;;;;;;;;5045746;28;20048;-75
2021/12/06 01:27:51;;;;;;;47.63;16.52;;;;;;;;;;5044660;28;20067;-75
2021/12/06 01:40:44;;;;;;;67.43;21.52;;;;;;;;;;5044560;28;20040;-75
2021/12/06 01:43:10;;;;;;;48.75;18.55;;;;;;;;;;5027143;28;20040;-75
2021/12/06 01:45:36;;;;;;;61.80;22.67;;;;;;;;;;5029521;28;20040;-76
2021/12/06 01:48:02;;;;;;;68.72;22.00;;;;;;;;;;5028218;28;20500;-75
2021/12/06 01:50:28;;;;;;;75.32;21.98;;;;;;;;;;5045073;28;20033;-75
2021/12/06 01:52:59;;;;;;;61.97;21.95;;;;;;;;;;5043089;28;20049;-75
2021/12/06 01:55:25;;;;;;;;;;;;;;;;;;5027884;28;20040;-76
2021/12/06 01:57:53;;;;;;;45.95;16.88;;;;;;;;;;5028933;28;19928;-75
2021/12/06 02:00:39;;;;;;;68.60;21.13;;;;;;;;;;5026954;28;20451;-75
2021/12/06 02:03:06;;;;;;;63.00;21.48;;;;;;;;;;5029231;28;20044;-75
2021/12/06 02:05:32;;;;;;;62.50;21.48;;;;;;;;;;5042870;28;20599;-75
2021/12/06 02:07:59;;;;;;;66.85;22.13;;;;;;;;;;5028065;28;20120;-75
2021/12/06 02:10:25;;;;;;;67.07;22.00;;;;;;;;;;5044151;28;20045;-76
2021/12/06 02:12:53;;;;;;;52.50;20.50;;;;;;;;;;5043200;28;20040;-75
2021/12/06 02:15:34;;;;;;;50.00;17.40;;;;;;;;;;5026762;28;20037;-75
2021/12/06 02:18:15;;;;;;;51.58;17.90;;;;;;;;;;5043798;28;20040;-75
2021/12/06 02:20:48;;;;;;;53.80;19.02;;;;;;;;;;5028956;28;20107;-75
2021/12/06 02:23:14;;;;;;;57.03;18.65;;;;;;;;;;5026565;28;20040;-75
2021/12/06 02:25:41;;;;;;;49.13;17.35;;;;;;;;;;5044274;28;20052;-74
2021/12/06 02:28:07;;;;;;;69.32;23.30;;;;;;;;;;5027806;28;20095;-75
2021/12/06 02:30:33;;;;;;;69.22;24.83;;;;;;;;;;5026043;28;20047;-75
2021/12/06 02:33:00;;;;;;;63.45;20.55;;;;;;;;;;5044227;28;20082;-75
2021/12/06 02:35:27;;;;;;;56.75;20.58;;;;;;;;;;5027507;28;20040;-76
2021/12/06 02:37:53;;;;;;;66.65;22.25;;;;;;;;;;5025993;28;20048;-75
2021/12/06 02:40:21;;;;;;;49.13;18.35;;;;;;;;;;5044030;28;20064;-75
2021/12/06 02:42:47;;;;;;;62.08;20.35;;;;;;;;;;5041713;28;20484;-75
2021/12/06 02:45:15;;;;;;;57.08;19.20;;;;;;;;;;5027786;28;20407;-75
2021/12/06 02:47:41;;;;;;;46.72;17.30;;;;;;;;;;5042992;28;20552;-74
2021/12/06 02:50:09;;;;;;;49.38;18.05;;;;;;;;;;5043065;28;20044;-74
2021/12/06 02:52:36;;;;;;;45.83;17.45;;;;;;;;;;5027640;28;20170;-75
2021/12/06 02:55:10;;;;;;;47.80;18.95;;;;;;;;;;5042792;28;20048;-74
2021/12/06 02:57:38;;;;;;;48.58;17.65;;;;;;;;;;5041966;28;20082;-75
2021/12/06 03:00:08;;;;;;;42.65;16.35;;;;;;;;;;5026424;28;20036;-75
2021/12/06 03:02:35;;;;;;;47.65;18.02;;;;;;;;;;5044030;28;20032;-75
2021/12/06 03:05:01;;;;;;;48.80;17.65;;;;;;;;;;5042798;28;20033;-74
2021/12/06 03:07:28;;;;;;;53.45;20.02;;;;;;;;;;5025969;28;20043;-74
2021/12/06 03:09:56;;;;;;;51.22;17.15;;;;;;;;;;5044006;28;20044;-75
2021/12/06 03:12:24;;;;;;;53.85;17.00;;;;;;;;;;5042872;28;20694;-75
2021/12/06 03:14:52;;;;;;;52.15;19.58;;;;;;;;;;5042296;28;20178;-74
2021/12/06 03:17:19;;;;;;;48.72;18.05;;;;;;;;;;5025720;28;20078;-75
2021/12/06 03:19:46;;;;;;;54.97;19.75;;;;;;;;;;5025278;28;20127;-74
2021/12/06 03:22:13;;;;;;;49.53;18.88;;;;;;;;;;5026850;28;20057;-74
2021/12/06 03:24:39;;;;;;;51.67;15.60;;;;;;;;;;5042256;28;20052;-75
2021/12/06 03:27:06;;;;;;;52.70;17.65;;;;;;;;;;5042434;28;20131;-74
2021/12/06 03:29:32;;;;;;;42.85;16.13;;;;;;;;;;5027108;28;20029;-75
2021/12/06 03:31:58;;;;;;;48.20;18.05;;;;;;;;;;5025315;28;20032;-75
2021/12/06 03:34:28;;;;;;;54.00;18.27;;;;;;;;;;5025925;28;20400;-75
2021/12/06 03:36:55;;;;;;;51.13;17.83;;;;;;;;;;5043510;28;20068;-74
2021/12/06 03:39:26;;;;;;;45.33;16.42;;;;;;;;;;5042149;28;20029;-75
2021/12/06 03:41:52;;;;;;;;;;;;;;;;;;5041671;28;20047;-75
2021/12/06 03:44:20;;;;;;;48.20;16.83;;;;;;;;;;5026546;28;19916;-74
2021/12/06 03:46:46;;;;;;;52.78;19.08;;;;;;;;;;5026005;28;20044;-74
2021/12/06 03:49:14;;;;;;;52.42;16.73;;;;;;;;;;5024538;28;20076;-75
2021/12/06 03:51:40;;;;;;;49.95;15.65;;;;;;;;;;5026573;28;20036;-75
2021/12/06 03:54:07;;;;;;;49.20;16.35;;;;;;;;;;5025993;28;20045;-75
2021/12/06 03:56:33;;;;;;;56.75;18.05;;;;;;;;;;5041248;28;20493;-75
2021/12/06 03:58:59;;;;;;;54.50;17.58;;;;;;;;;;5026718;28;20036;-75
2021/12/06 04:01:25;;;;;;;48.08;17.95;;;;;;;;;;5042340;28;20083;-75
2021/12/06 04:03:51;;;;;;;51.38;17.23;;;;;;;;;;5041299;28;20040;-75
2021/12/06 04:06:17;;;;;;;49.83;16.80;;;;;;;;;;5024710;28;20037;-75
2021/12/06 04:08:43;;;;;;;56.03;18.35;;;;;;;;;;5042484;28;20089;-75
2021/12/06 04:11:09;;;;;;;49.72;18.88;;;;;;;;;;5040336;28;20051;-75
2021/12/06 04:13:35;;;;;;;52.70;17.73;;;;;;;;;;5026759;28;20119;-75
2021/12/06 04:16:03;;;;;;;50.30;16.38;;;;;;;;;;5025241;28;20048;-75
2021/12/06 04:18:29;;;;;;;44.40;15.95;;;;;;;;;;5041351;28;20040;-75
2021/12/06 04:20:55;;;;;;;52.13;18.27;;;;;;;;;;5042908;28;20071;-75
2021/12/06 04:23:21;;;;;;;49.67;17.50;;;;;;;;;;5024805;28;20041;-75
2021/12/06 04:25:48;;;;;;;43.95;17.05;;;;;;;;;;5041791;28;20043;-75
2021/12/06 04:28:15;;;;;;;48.28;16.00;;;;;;;;;;5043160;28;20540;-74
2021/12/06 04:30:42;;;;;;;48.92;15.80;;;;;;;;;;5049376;28;20044;-75
2021/12/06 04:33:08;;;;;;;50.13;17.33;;;;;;;;;;5057396;28;20045;-75
2021/12/06 04:35:36;;;;;;;53.92;17.27;;;;;;;;;;5057044;28;20045;-75
2021/12/06 04:38:03;;;;;;;48.53;15.63;;;;;;;;;;5040422;28;20037;-75
2021/12/06 04:40:29;;;;;;;51.83;16.92;;;;;;;;;;5040446;28;20033;-75
2021/12/06 04:42:55;;;;;;;42.42;16.00;;;;;;;;;;5056927;28;20072;-75
2021/12/06 04:45:21;;;;;;;49.45;17.30;;;;;;;;;;5057027;28;20459;-75
2021/12/06 04:47:48;;;;;;;49.80;16.77;;;;;;;;;;5056952;28;20049;-75
2021/12/06 04:50:14;;;;;;;49.40;16.65;;;;;;;;;;5056802;28;20048;-75
2021/12/06 04:52:41;;;;;;;52.38;17.48;;;;;;;;;;5056836;28;20089;-76
2021/12/06 04:55:29;;;;;;;52.08;18.00;;;;;;;;;;5056820;28;20044;-75
2021/12/06 04:57:56;;;;;;;50.75;16.90;;;;;;;;;;5040089;28;20063;-75
2021/12/06 05:00:32;;;;;;;50.30;18.52;;;;;;;;;;5039877;28;20051;-75
2021/12/06 05:02:59;;;;;;;59.50;18.13;;;;;;;;;;5056634;28;20040;-75
2021/12/06 05:05:35;;;;;;;50.97;16.65;;;;;;;;;;5039906;28;20040;-75
2021/12/06 05:08:05;;;;;;;46.03;16.23;;;;;;;;;;5039862;28;20036;-74
2021/12/06 05:10:31;;;;;;;49.13;17.17;;;;;;;;;;5056463;28;20040;-75
2021/12/06 05:12:57;;;;;;;44.88;16.27;;;;;;;;;;5039743;28;20040;-74
2021/12/06 05:15:23;;;;;;;53.05;16.95;;;;;;;;;;5039787;28;20075;-75
2021/12/06 05:17:49;;;;;;;52.22;16.17;;;;;;;;;;5039911;28;20074;-75
2021/12/06 05:20:16;;;;;;;42.50;16.42;;;;;;;;;;5039485;28;20084;-75
2021/12/06 05:22:42;;;;;;;46.88;16.33;;;;;;;;;;5056318;28;20210;-75
2021/12/06 05:25:08;;;;;;;61.92;19.20;;;;;;;;;;5039858;28;20131;-74
2021/12/06 05:27:35;;;;;;;55.20;17.05;;;;;;;;;;5056290;28;20048;-75
2021/12/06 05:30:03;;;;;;;46.40;16.55;;;;;;;;;;5040179;28;20045;-75
2021/12/06 05:32:33;;;;;;;48.75;17.58;;;;;;;;;;5056204;28;20048;-75
2021/12/06 05:35:06;;;;;;;52.55;17.33;;;;;;;;;;5039261;28;20045;-75
2021/12/06 05:37:33;;;;;;;54.53;16.08;;;;;;;;;;5039681;28;20079;-75
2021/12/06 05:39:59;;;;;;;51.72;18.35;;;;;;;;;;5055791;28;20040;-75
2021/12/06 05:42:26;;;;;;;53.45;17.08;;;;;;;;;;5038731;28;20036;-75
2021/12/06 05:44:52;;;;;;;53.13;18.40;;;;;;;;;;5055751;28;20041;-75
2021/12/06 05:47:18;;;;;;;47.78;16.63;;;;;;;;;;5055864;28;20036;-75
2021/12/06 05:49:44;;;;;;;41.25;15.13;;;;;;;;;;5039356;28;20041;-75
2021/12/06 05:52:10;;;;;;;49.58;14.68;;;;;;;;;;5039285;28;20032;-75
2021/12/06 05:54:36;;;;;;;47.95;15.93;;;;;;;;;;5039123;28;20572;-75
2021/12/06 05:57:03;;;;;;;53.53;17.33;;;;;;;;;;5038852;28;20373;-75
2021/12/06 05:59:29;;;;;;;47.60;16.48;;;;;;;;;;5038943;28;20123;-75
2021/12/06 06:01:55;;;;;;;51.22;15.93;;;;;;;;;;5039016;28;20063;-75
2021/12/06 06:04:21;;;;;;;50.47;15.88;;;;;;;;;;5039037;28;20033;-75
2021/12/06 06:06:49;;;;;;;45.03;16.30;;;;;;;;;;5038951;28;20044;-75
2021/12/06 06:09:15;;;;;;;52.90;16.35;;;;;;;;;;5039226;28;20044;-74
2021/12/06 06:11:41;;;;;;;57.70;20.17;;;;;;;;;;5038978;28;20043;-75
2021/12/06 06:14:07;;;;;;;45.63;18.17;;;;;;;;;;5038713;28;20128;-75
2021/12/06 06:16:45;;;;;;;54.65;16.83;;;;;;;;;;5055160;28;20041;-75
2021/12/06 06:19:11;;;;;;;53.83;17.30;;;;;;;;;;5038642;28;20039;-75
2021/12/06 06:21:37;;;;;;;56.42;18.20;;;;;;;;;;5038388;28;20056;-75
2021/12/06 06:24:03;;;;;;;53.65;16.35;;;;;;;;;;5038549;28;20044;-75
2021/12/06 06:26:29;;;;;;;49.40;15.95;;;;;;;;;;5038804;28;20040;-75
2021/12/06 06:28:55;;;;;;;51.53;16.33;;;;;;;;;;5055405;28;20157;-75
2021/12/06 06:31:21;;;;;;;50.25;16.48;;;;;;;;;;5038696;28;20048;-75
2021/12/06 06:33:47;;;;;;;49.05;16.52;;;;;;;;;;5038441;28;20195;-75
2021/12/06 06:36:13;;;;;;;45.85;15.55;;;;;;;;;;5038168;28;20044;-75
2021/12/06 06:38:39;;;;;;;51.33;16.92;;;;;;;;;;5038209;28;20392;-75
2021/12/06 06:41:05;;;;;;;47.08;16.10;;;;;;;;;;5038393;28;20071;-75
2021/12/06 06:43:31;;;;;;;54.15;16.65;;;;;;;;;;5054585;28;20044;-75
2021/12/06 06:45:57;;;;;;;57.30;18.50;;;;;;;;;;5037905;28;20083;-75
2021/12/06 06:48:23;;;;;;;60.17;17.00;;;;;;;;;;5054631;28;20083;-75
2021/12/06 06:50:49;;;;;;;55.22;18.73;;;;;;;;;;5054523;28;20074;-75
2021/12/06 06:53:15;;;;;;;59.67;18.52;;;;;;;;;;5037402;28;20114;-75
2021/12/06 06:55:41;;;;;;;59.28;17.90;;;;;;;;;;5053910;28;20040;-76
2021/12/06 06:58:07;;;;;;;55.40;17.88;;;;;;;;;;5054407;28;20071;-76
2021/12/06 07:00:35;;;;;;;46.20;14.45;;;;;;;;;;5054699;28;20052;-76
2021/12/06 07:03:01;;;;;;;54.38;15.32;;;;;;;;;;5054272;28;20043;-76
2021/12/06 07:05:28;;;;;;;47.22;16.63;;;;;;;;;;5054221;28;20044;-75
2021/12/06 07:07:55;;;;;;;45.97;14.95;;;;;;;;;;5037657;28;20504;-76
2021/12/06 07:10:23;;;;;;;49.95;16.35;;;;;;;;;;5038121;28;20079;-75
2021/12/06 07:12:51;;;;;;;51.60;15.75;;;;;;;;;;5038361;28;20074;-76
2021/12/06 07:15:36;;;;;;;54.33;16.88;;;;;;;;;;5054000;28;20044;-75
2021/12/06 07:18:03;;;;;;;55.45;18.17;;;;;;;;;;5054252;28;20044;-75
2021/12/06 07:20:30;;;;;;;57.13;17.70;;;;;;;;;;5037281;28;20480;-76
2021/12/06 07:22:56;;;;;;;55.58;17.35;;;;;;;;;;5037398;28;20123;-77
2021/12/06 07:25:23;;;;;;;48.50;15.60;;;;;;;;;;5037290;28;20118;-76
2021/12/06 07:27:49;;;;;;;47.45;16.02;;;;;;;;;;5054278;28;20036;-76
2021/12/06 07:30:16;;;;;;;56.20;17.08;;;;;;;;;;5054133;28;20037;-77
2021/12/06 07:32:43;;;;;;;52.80;17.40;;;;;;;;;;5053691;28;20055;-76
2021/12/06 07:35:09;;;;;;;57.05;15.93;;;;;;;;;;5053794;28;20040;-75
2021/12/06 07:37:35;;;;;;;48.40;16.25;;;;;;;;;;5037420;28;20048;-74
2021/12/06 07:40:02;;;;;;;57.10;18.02;;;;;;;;;;5053965;28;20239;-75
2021/12/06 07:42:28;;;;;;;52.97;17.35;;;;;;;;;;5037522;28;20047;-76
2021/12/06 07:44:54;;;;;;;55.30;15.98;;;;;;;;;;5053880;28;20253;-76
2021/12/06 07:47:21;;;;;;;52.13;18.05;;;;;;;;;;5053700;28;20093;-75
2021/12/06 07:49:47;;;;;;;50.97;18.08;;;;;;;;;;5053683;28;20097;-75
2021/12/06 07:52:13;;;;;;;50.58;17.20;;;;;;;;;;5037017;28;20032;-75
2021/12/06 07:54:40;;;;;;;58.65;18.30;;;;;;;;;;5053912;28;20561;-76
2021/12/06 07:57:06;;;;;;;49.10;16.25;;;;;;;;;;5053574;28;20047;-76
2021/12/06 07:59:33;;;;;;;54.25;18.13;;;;;;;;;;5036905;28;20560;-76
2021/12/06 08:01:59;;;;;;;55.38;16.92;;;;;;;;;;5036664;28;20043;-76
2021/12/06 08:04:25;;;;;;;58.60;18.23;;;;;;;;;;5053704;28;20400;-76
2021/12/06 08:06:51;;;;;;;60.85;16.63;;;;;;;;;;5036348;28;20048;-77
2021/12/06 08:09:18;;;;;;;48.03;16.70;;;;;;;;;;5024059;28;20095;-76
2021/12/06 08:11:44;;;;;;;45.70;16.67;;;;;;;;;;5023008;28;20062;-75
2021/12/06 08:14:10;;;;;;;57.13;17.35;;;;;;;;;;5038656;28;20048;-76
2021/12/06 08:16:43;;;;;;;54.00;17.15;;;;;;;;;;5020879;28;20037;-75
2021/12/06 08:19:09;;;;;;;53.38;17.67;;;;;;;;;;5022376;28;20680;-77
2021/12/06 08:21:37;;;;;;;44.15;13.77;;;;;;;;;;5037532;28;20546;-76
2021/12/06 08:24:04;;;;;;;45.78;15.30;;;;;;;;;;5021281;28;20037;-76
2021/12/06 08:26:32;;;;;;;49.25;16.35;;;;;;;;;;5038392;28;20040;-77
2021/12/06 08:28:59;;;;;;;52.03;16.30;;;;;;;;;;5039233;28;20805;-77
2021/12/06 08:31:27;;;;;;;48.53;16.35;;;;;;;;;;5021405;28;20040;-76
2021/12/06 08:33:53;;;;;;;41.10;13.75;;;;;;;;;;5037980;28;20048;-76
2021/12/06 08:36:20;;;;;;;42.92;14.15;;;;;;;;;;5022614;28;20072;-77
2021/12/06 08:38:47;;;;;;;47.15;15.50;;;;;;;;;;5037818;28;20461;-76
2021/12/06 08:41:15;;;;;;;41.80;14.10;;;;;;;;;;5049781;28;20045;-76
2021/12/06 08:43:42;;;;;;;42.90;13.90;;;;;;;;;;5049679;28;20090;-77
2021/12/06 08:46:09;;;;;;;47.22;14.88;;;;;;;;;;5033059;28;20072;-77
2021/12/06 08:48:36;;;;;;;38.28;14.13;;;;;;;;;;5049481;28;20053;-76
2021/12/06 08:51:06;;;;;;;43.53;16.48;;;;;;;;;;5032727;28;20052;-76
2021/12/06 08:53:32;;;;;;;42.35;13.77;;;;;;;;;;5033241;28;20563;-76
2021/12/06 08:55:58;;;;;;;38.10;13.45;;;;;;;;;;5049398;28;20048;-77
2021/12/06 08:58:24;;;;;;;40.33;14.45;;;;;;;;;;5032672;28;20048;-76
2021/12/06 09:00:50;;;;;;;45.15;15.40;;;;;;;;;;5045854;28;20124;-77
2021/12/06 09:03:17;;;;;;;39.60;13.50;;;;;;;;;;5038256;28;20072;-76
2021/12/06 09:05:46;;;;;;;38.67;13.90;;;;;;;;;;5039031;28;20049;-77
2021/12/06 09:08:12;;;;;;;38.17;13.15;;;;;;;;;;5037354;28;20051;-77
2021/12/06 09:10:38;;;;;;;37.17;13.07;;;;;;;;;;5021434;28;20513;-77
2021/12/06 09:13:05;;;;;;;46.58;13.75;;;;;;;;;;5022828;28;21597;-77
2021/12/06 09:15:32;;;;;;;42.25;13.73;;;;;;;;;;5036773;28;20041;-76
2021/12/06 09:17:58;;;;;;;39.95;14.18;;;;;;;;;;5023419;28;20040;-77
2021/12/06 09:20:26;;;;;;;35.97;11.75;;;;;;;;;;5025970;28;20033;-76
2021/12/06 09:22:52;;;;;;;36.95;13.23;;;;;;;;;;5040954;28;20043;-77
2021/12/06 09:25:18;;;;;;;44.10;15.48;;;;;;;;;;5041499;28;20141;-77
2021/12/06 09:27:45;;;;;;;40.03;14.10;;;;;;;;;;5025671;28;20048;-77
2021/12/06 09:30:13;;;;;;;41.63;15.27;;;;;;;;;;5040801;28;20055;-77
2021/12/06 09:32:39;;;;;;;37.13;14.02;;;;;;;;;;5017759;28;20048;-76
2021/12/06 09:35:06;;;;;;;33.03;10.68;;;;;;;;;;5016026;28;20049;-77
2021/12/06 09:37:35;;;;;;;31.02;11.35;;;;;;;;;;5016398;28;20048;-76
2021/12/06 09:40:02;;;;;;;36.38;12.52;;;;;;;;;;5032468;28;20048;-77
2021/12/06 09:42:32;;;;;;;29.90;10.45;;;;;;;;;;5016145;28;20057;-76
2021/12/06 09:44:58;;;;;;;35.75;11.90;;;;;;;;;;5016299;28;20101;-77
2021/12/06 09:47:25;;;;;;;33.92;12.13;;;;;;;;;;5032313;28;20103;-77
2021/12/06 09:49:51;;;;;;;29.42;11.90;;;;;;;;;;5033039;28;20048;-76
2021/12/06 09:52:17;;;;;;;34.88;12.15;;;;;;;;;;5048653;28;20373;-77
2021/12/06 09:54:43;;;;;;;33.38;11.25;;;;;;;;;;5035533;28;20041;-77
2021/12/06 09:57:10;;;;;;;37.53;12.10;;;;;;;;;;5052302;28;20106;-76
2021/12/06 09:59:38;;;;;;;33.55;12.60;;;;;;;;;;5042923;28;20111;-77
2021/12/06 10:02:05;;;;;;;35.55;13.48;;;;;;;;;;5024460;28;20041;-76
2021/12/06 10:04:33;;;;;;;41.30;13.63;;;;;;;;;;5040924;28;20464;-77
2021/12/06 10:06:59;;;;;;;47.10;13.85;;;;;;;;;;5026442;28;20093;-76
2021/12/06 10:09:26;;;;;;;42.30;12.60;;;;;;;;;;5041061;28;20056;-77
2021/12/06 10:11:53;;;;;;;45.17;13.95;;;;;;;;;;5041539;28;20072;-76
2021/12/06 10:14:19;;;;;;;37.28;11.63;;;;;;;;;;5026021;28;20047;-78
2021/12/06 10:16:45;;;;;;;38.20;12.30;;;;;;;;;;5023862;28;20041;-77
2021/12/06 10:19:12;;;;;;;37.33;12.43;;;;;;;;;;5043414;28;20091;-77
2021/12/06 10:21:39;;;;;;;35.72;13.48;;;;;;;;;;5029043;28;20059;-77
2021/12/06 10:24:10;;;;;;;35.40;12.82;;;;;;;;;;5027749;28;20092;-77
2021/12/06 10:26:36;;;;;;;38.17;13.50;;;;;;;;;;5044162;28;20047;-78
2021/12/06 10:29:05;;;;;;;34.53;11.00;;;;;;;;;;5045422;28;20036;-76
2021/12/06 10:31:32;;;;;;;38.60;13.05;;;;;;;;;;5045006;28;20094;-77
2021/12/06 10:33:58;;;;;;;38.28;12.95;;;;;;;;;;5035649;28;20068;-78
2021/12/06 10:36:25;;;;;;;31.90;11.10;;;;;;;;;;5035057;28;20036;-76
2021/12/06 10:38:53;;;;;;;34.72;11.48;;;;;;;;;;5034894;28;20175;-77
2021/12/06 10:41:20;;;;;;;40.72;13.30;;;;;;;;;;5034907;28;20481;-78
2021/12/06 10:43:57;;;;;;;32.28;12.15;;;;;;;;;;5034829;28;20052;-76
2021/12/06 10:46:25;;;;;;;36.33;12.40;;;;;;;;;;5018052;28;20048;-77
2021/12/06 10:48:53;;;;;;;39.13;12.13;;;;;;;;;;5018251;28;20134;-76
2021/12/06 10:51:19;;;;;;;36.72;13.02;;;;;;;;;;5032854;28;20500;-76
2021/12/06 10:53:48;;;;;;;39.03;15.07;;;;;;;;;;5031126;28;20479;-76
2021/12/06 10:56:19;;;;;;;45.63;14.95;;;;;;;;;;5014360;28;20156;-77
2021/12/06 10:58:45;;;;;;;47.75;15.05;;;;;;;;;;5030936;28;20485;-76
2021/12/06 11:01:16;;;;;;;40.35;14.95;;;;;;;;;;5031300;28;20477;-77
2021/12/06 11:03:45;;;;;;;47.42;15.52;;;;;;;;;;5030686;28;20037;-75
2021/12/06 11:06:24;;;;;;;54.30;18.08;;;;;;;;;;5032661;28;20119;-77
2021/12/06 11:08:51;;;;;;;54.10;17.45;;;;;;;;;;5039927;28;20045;-77
2021/12/06 11:11:26;;;;;;;44.42;16.67;;;;;;;;;;5039802;28;20094;-77
2021/12/06 11:13:54;;;;;;;35.45;12.55;;;;;;;;;;5040379;28;20425;-77
2021/12/06 11:16:21;;;;;;;44.10;14.65;;;;;;;;;;5022566;28;20526;-74
2021/12/06 11:18:54;;;;;;;36.30;12.90;;;;;;;;;;5022948;28;20048;-76
2021/12/06 11:21:23;;;;;;;30.95;11.23;;;;;;;;;;5022401;28;20057;-77
2021/12/06 11:23:55;;;;;;;33.45;11.63;;;;;;;;;;5023931;28;20036;-76
2021/12/06 11:26:21;;;;;;;32.72;12.77;;;;;;;;;;5024590;28;20090;-77
2021/12/06 11:28:48;;;;;;;33.15;11.95;;;;;;;;;;5021575;28;20040;-76
2021/12/06 11:31:15;;;;;;;31.60;11.35;;;;;;;;;;5014038;28;20157;-76
2021/12/06 11:33:41;;;;;;;34.75;13.73;;;;;;;;;;5014141;28;20059;-77
2021/12/06 11:36:19;;;;;;;37.47;12.68;;;;;;;;;;5013767;28;20037;-77
2021/12/06 11:38:49;;;;;;;36.65;11.77;;;;;;;;;;5030409;28;20044;-76
2021/12/06 11:41:15;;;;;;;29.70;11.05;;;;;;;;;;5013239;28;20076;-77
2021/12/06 11:43:41;;;;;;;33.83;11.25;;;;;;;;;;5030023;28;20080;-76
2021/12/06 11:46:08;;;;;;;27.80;9.93;;;;;;;;;;5013746;28;20041;-76
2021/12/06 11:48:39;;;;;;;17.98;7.32;;;;;;;;;;5030266;28;20556;-77
2021/12/06 11:51:05;;;;;;;;;;;;;;;;;;5014486;28;20052;-76
2021/12/06 11:53:33;;;;;;;27.15;10.63;;;;;;;;;;5034713;28;19931;-76
2021/12/06 11:56:01;;;;;;;26.67;10.07;;;;;;;;;;5039582;28;20409;-76
2021/12/06 11:58:31;;;;;;;21.45;8.50;;;;;;;;;;5039309;28;20039;-77
2021/12/06 12:01:11;;;;;;;26.98;10.43;;;;;;;;;;5037936;28;20037;-77
2021/12/06 12:03:38;;;;;;;28.80;10.43;;;;;;;;;;5037617;28;20131;-76
2021/12/06 12:06:20;;;;;;;27.15;11.00;;;;;;;;;;5022569;28;20071;-76
2021/12/06 12:08:46;;;;;;;24.92;9.43;;;;;;;;;;5022343;28;20047;-76
2021/12/06 12:11:12;;;;;;;27.13;10.23;;;;;;;;;;5038087;28;20139;-76
2021/12/06 12:13:38;;;;;;;27.30;10.20;;;;;;;;;;5023191;28;20378;-76
2021/12/06 12:16:10;;;;;;;24.02;9.38;;;;;;;;;;5021846;28;20090;-77
2021/12/06 12:18:38;;;;;;;29.80;10.73;;;;;;;;;;5020786;28;20448;-77
2021/12/06 12:21:05;;;;;;;21.88;8.88;;;;;;;;;;5038541;28;20056;-77
2021/12/06 12:23:32;;;;;;;25.02;8.82;;;;;;;;;;5022939;28;20086;-76
2021/12/06 12:26:06;;;;;;;25.58;9.32;;;;;;;;;;5037288;28;20040;-76
2021/12/06 12:28:38;;;;;;;25.50;9.85;;;;;;;;;;5037835;28;20051;-77
2021/12/06 12:31:06;;;;;;;27.45;11.20;;;;;;;;;;5021975;28;20048;-76
2021/12/06 12:33:33;;;;;;;33.47;11.40;;;;;;;;;;5037535;28;20470;-74
2021/12/06 12:36:03;;;;;;;32.67;11.40;;;;;;;;;;5039225;28;20042;-76
2021/12/06 12:38:30;;;;;;;31.55;12.27;;;;;;;;;;5022197;28;20036;-77
2021/12/06 12:41:00;;;;;;;34.33;12.30;;;;;;;;;;5020472;28;20049;-75
2021/12/06 12:43:36;;;;;;;29.40;10.98;;;;;;;;;;5038188;28;20299;-75
2021/12/06 12:46:09;;;;;;;35.70;12.55;;;;;;;;;;5040138;28;20441;-77
2021/12/06 12:48:46;;;;;;;31.60;11.95;;;;;;;;;;5024134;28;20071;-77
2021/12/06 12:51:15;;;;;;;34.50;12.38;;;;;;;;;;5041574;28;20044;-77
2021/12/06 12:53:54;;;;;;;32.50;12.18;;;;;;;;;;5044783;28;20132;-77
2021/12/06 12:56:27;;;;;;;30.42;10.95;;;;;;;;;;5044601;28;20080;-75
2021/12/06 12:58:54;;;;;;;32.55;12.90;;;;;;;;;;5027955;28;20406;-76
2021/12/06 13:01:22;;;;;;;29.70;11.65;;;;;;;;;;5046379;28;20039;-77
2021/12/06 13:03:55;;;;;;;29.05;10.80;;;;;;;;;;5045857;28;20041;-76
2021/12/06 13:06:24;;;;;;;31.73;12.73;;;;;;;;;;5044652;28;20521;-76
2021/12/06 13:08:54;;;;;;;30.75;11.70;;;;;;;;;;5028280;28;20040;-76
2021/12/06 13:11:20;;;;;;;37.45;13.35;;;;;;;;;;5043500;28;20436;-76
2021/12/06 13:13:49;;;;;;;34.70;12.30;;;;;;;;;;5044798;28;20040;-77
2021/12/06 13:16:29;;;;;;;40.20;12.98;;;;;;;;;;5045683;28;20389;-76
2021/12/06 13:19:11;;;;;;;36.75;13.18;;;;;;;;;;5045887;28;20124;-77
2021/12/06 13:21:49;;;;;;;46.25;16.08;;;;;;;;;;5045571;28;20052;-76
2021/12/06 13:24:16;;;;;;;45.58;14.90;;;;;;;;;;5029204;28;20051;-78
2021/12/06 13:26:43;;;;;;;41.05;13.75;;;;;;;;;;5027566;28;20040;-77
2021/12/06 13:29:11;;;;;;;40.35;14.18;;;;;;;;;;5044578;28;20075;-77
2021/12/06 13:31:37;;;;;;;36.28;14.18;;;;;;;;;;5029244;28;20032;-77
2021/12/06 13:34:19;;;;;;;36.53;13.93;;;;;;;;;;5044151;28;20129;-77
2021/12/06 13:36:47;;;;;;;35.30;13.70;;;;;;;;;;5044195;28;20037;-77
2021/12/06 13:39:33;;;;;;;34.90;12.40;;;;;;;;;;5027008;28;20040;-76
2021/12/06 13:42:01;;;;;;;33.08;13.35;;;;;;;;;;5028934;28;20095;-76
2021/12/06 13:44:42;;;;;;;36.60;14.23;;;;;;;;;;5044096;28;20060;-77
2021/12/06 13:47:09;;;;;;;39.22;12.93;;;;;;;;;;5026462;28;20041;-77
2021/12/06 13:49:35;;;;;;;44.35;14.73;;;;;;;;;;5035859;28;20045;-77
2021/12/06 13:52:03;;;;;;;38.92;14.20;;;;;;;;;;5019627;28;20500;-77
2021/12/06 13:54:31;;;;;;;44.97;15.50;;;;;;;;;;5019551;28;20041;-78
2021/12/06 13:57:01;;;;;;;40.03;14.43;;;;;;;;;;5019257;28;20087;-77
2021/12/06 13:59:43;;;;;;;39.60;16.70;;;;;;;;;;5035741;28;20037;-77
2021/12/06 14:02:10;;;;;;;40.55;15.00;;;;;;;;;;5019183;28;20439;-77
2021/12/06 14:04:38;;;;;;;36.63;15.93;;;;;;;;;;5035371;28;20106;-77
2021/12/06 14:07:06;;;;;;;41.33;14.32;;;;;;;;;;5019090;28;20260;-77
2021/12/06 14:09:52;;;;;;;44.13;15.48;;;;;;;;;;5035831;28;20059;-76
2021/12/06 14:12:20;;;;;;;37.08;14.52;;;;;;;;;;5019291;28;20045;-77
2021/12/06 14:14:48;;;;;;;47.53;14.25;;;;;;;;;;5018952;28;20081;-78
2021/12/06 14:17:15;;;;;;;39.25;15.18;;;;;;;;;;5018867;28;20041;-77
2021/12/06 14:19:42;;;;;;;50.15;17.60;;;;;;;;;;5018911;28;20551;-77
2021/12/06 14:22:09;;;;;;;44.40;16.05;;;;;;;;;;5018748;28;20102;-77
2021/12/06 14:24:36;;;;;;;40.33;15.70;;;;;;;;;;5035357;28;20038;-75
2021/12/06 14:27:03;;;;;;;45.95;16.80;;;;;;;;;;5018593;28;20056;-77
2021/12/06 14:29:30;;;;;;;43.45;16.02;;;;;;;;;;5035347;28;20055;-77
2021/12/06 14:31:58;;;;;;;40.47;15.85;;;;;;;;;;5021378;28;20052;-78
2021/12/06 14:34:28;;;;;;;45.45;16.90;;;;;;;;;;5045001;28;20033;-77
2021/12/06 14:36:54;;;;;;;46.00;18.20;;;;;;;;;;5043326;28;20499;-77